sensor_id;sensor_type;location;lat;lon;timestamp;P1;durP1;ratioP1;P2;durP2;ratioP2
74369;SDS011;62805;44.644;10.942;2023-04-03T00:01:33;5.37;;;2.70;;
74369;SDS011;62805;44.644;10.942;2023-04-03T00:04:00;6.85;;;2.80;;
74369;SDS011;62805;44.644;10.942;2023-04-03T00:06:25;6.45;;;2.90;;
74369;SDS011;62805;44.644;10.942;2023-04-03T00:08:51;4.93;;;3.05;;
74369;SDS011;62805;44.644;10.942;2023-04-03T00:11:17;5.90;;;2.90;;
74369;SDS011;62805;44.644;10.942;2023-04-03T00:13:43;5.20;;;2.88;;
74369;SDS011;62805;44.644;10.942;2023-04-03T00:16:09;5.55;;;2.70;;
74369;SDS011;62805;44.644;10.942;2023-04-03T00:18:36;4.50;;;2.53;;
74369;SDS011;62805;44.644;10.942;2023-04-03T00:21:02;5.82;;;2.63;;
74369;SDS011;62805;44.644;10.942;2023-04-03T00:23:28;8.90;;;2.67;;
74369;SDS011;62805;44.644;10.942;2023-04-03T00:25:53;6.67;;;2.63;;
74369;SDS011;62805;44.644;10.942;2023-04-03T00:28:19;5.70;;;2.60;;
74369;SDS011;62805;44.644;10.942;2023-04-03T00:30:45;6.18;;;2.60;;
74369;SDS011;62805;44.644;10.942;2023-04-03T00:33:11;5.80;;;2.50;;
74369;SDS011;62805;44.644;10.942;2023-04-03T00:35:38;5.15;;;2.47;;
74369;SDS011;62805;44.644;10.942;2023-04-03T00:38:03;4.97;;;2.67;;
74369;SDS011;62805;44.644;10.942;2023-04-03T00:40:32;3.13;;;1.95;;
74369;SDS011;62805;44.644;10.942;2023-04-03T00:43:05;4.63;;;2.05;;
74369;SDS011;62805;44.644;10.942;2023-04-03T00:45:37;3.53;;;2.03;;
74369;SDS011;62805;44.644;10.942;2023-04-03T00:48:07;6.55;;;2.85;;
74369;SDS011;62805;44.644;10.942;2023-04-03T00:50:35;6.32;;;2.50;;
74369;SDS011;62805;44.644;10.942;2023-04-03T00:53:04;4.45;;;2.40;;
74369;SDS011;62805;44.644;10.942;2023-04-03T00:55:31;5.97;;;2.75;;
74369;SDS011;62805;44.644;10.942;2023-04-03T00:57:57;4.43;;;2.88;;
74369;SDS011;62805;44.644;10.942;2023-04-03T01:00:25;5.85;;;2.90;;
74369;SDS011;62805;44.644;10.942;2023-04-03T01:02:51;6.95;;;3.00;;
74369;SDS011;62805;44.644;10.942;2023-04-03T01:05:17;4.40;;;2.70;;
74369;SDS011;62805;44.644;10.942;2023-04-03T01:07:44;4.88;;;2.15;;
74369;SDS011;62805;44.644;10.942;2023-04-03T01:10:11;6.35;;;2.40;;
74369;SDS011;62805;44.644;10.942;2023-04-03T01:12:40;4.75;;;2.17;;
74369;SDS011;62805;44.644;10.942;2023-04-03T01:17:36;4.32;;;2.60;;
74369;SDS011;62805;44.644;10.942;2023-04-03T01:23:06;4.28;;;2.47;;
74369;SDS011;62805;44.644;10.942;2023-04-03T01:25:49;4.63;;;2.28;;
74369;SDS011;62805;44.644;10.942;2023-04-03T01:28:17;4.93;;;2.38;;
74369;SDS011;62805;44.644;10.942;2023-04-03T01:30:48;4.13;;;2.50;;
74369;SDS011;62805;44.644;10.942;2023-04-03T01:33:33;5.53;;;2.67;;
74369;SDS011;62805;44.644;10.942;2023-04-03T01:36:00;5.18;;;2.83;;
74369;SDS011;62805;44.644;10.942;2023-04-03T01:38:25;4.45;;;2.55;;
74369;SDS011;62805;44.644;10.942;2023-04-03T01:40:51;3.80;;;2.35;;
74369;SDS011;62805;44.644;10.942;2023-04-03T01:43:16;6.20;;;2.58;;
74369;SDS011;62805;44.644;10.942;2023-04-03T01:45:41;3.67;;;2.55;;
74369;SDS011;62805;44.644;10.942;2023-04-03T01:48:07;4.27;;;2.60;;
74369;SDS011;62805;44.644;10.942;2023-04-03T01:50:32;4.25;;;2.83;;
74369;SDS011;62805;44.644;10.942;2023-04-03T01:52:58;4.60;;;2.80;;
74369;SDS011;62805;44.644;10.942;2023-04-03T01:55:23;3.97;;;2.53;;
74369;SDS011;62805;44.644;10.942;2023-04-03T01:57:48;5.95;;;2.97;;
74369;SDS011;62805;44.644;10.942;2023-04-03T02:00:14;7.00;;;3.50;;
74369;SDS011;62805;44.644;10.942;2023-04-03T02:02:39;8.77;;;4.00;;
74369;SDS011;62805;44.644;10.942;2023-04-03T02:05:05;7.80;;;3.57;;
74369;SDS011;62805;44.644;10.942;2023-04-03T02:07:31;5.47;;;2.95;;
74369;SDS011;62805;44.644;10.942;2023-04-03T02:09:56;8.37;;;3.93;;
74369;SDS011;62805;44.644;10.942;2023-04-03T02:12:21;6.07;;;3.40;;
74369;SDS011;62805;44.644;10.942;2023-04-03T02:14:47;5.17;;;3.10;;
74369;SDS011;62805;44.644;10.942;2023-04-03T02:17:12;4.97;;;3.22;;
74369;SDS011;62805;44.644;10.942;2023-04-03T02:19:38;6.28;;;3.30;;
74369;SDS011;62805;44.644;10.942;2023-04-03T02:22:03;9.13;;;3.60;;
74369;SDS011;62805;44.644;10.942;2023-04-03T02:24:29;5.50;;;3.67;;
74369;SDS011;62805;44.644;10.942;2023-04-03T02:26:55;6.47;;;3.20;;
74369;SDS011;62805;44.644;10.942;2023-04-03T02:29:20;10.55;;;4.13;;
74369;SDS011;62805;44.644;10.942;2023-04-03T02:31:46;5.45;;;3.38;;
74369;SDS011;62805;44.644;10.942;2023-04-03T02:34:11;6.22;;;3.60;;
74369;SDS011;62805;44.644;10.942;2023-04-03T02:36:37;8.35;;;4.70;;
74369;SDS011;62805;44.644;10.942;2023-04-03T02:39:02;5.78;;;3.90;;
74369;SDS011;62805;44.644;10.942;2023-04-03T02:41:28;8.60;;;4.38;;
74369;SDS011;62805;44.644;10.942;2023-04-03T02:44:00;8.30;;;4.05;;
74369;SDS011;62805;44.644;10.942;2023-04-03T02:46:26;7.25;;;3.70;;
74369;SDS011;62805;44.644;10.942;2023-04-03T02:48:52;6.13;;;3.58;;
74369;SDS011;62805;44.644;10.942;2023-04-03T02:51:17;8.02;;;3.75;;
74369;SDS011;62805;44.644;10.942;2023-04-03T02:53:43;8.10;;;4.07;;
74369;SDS011;62805;44.644;10.942;2023-04-03T02:56:08;8.63;;;4.00;;
74369;SDS011;62805;44.644;10.942;2023-04-03T02:58:33;6.88;;;3.97;;
74369;SDS011;62805;44.644;10.942;2023-04-03T03:00:59;7.38;;;3.95;;
74369;SDS011;62805;44.644;10.942;2023-04-03T03:03:24;7.68;;;3.80;;
74369;SDS011;62805;44.644;10.942;2023-04-03T03:05:50;6.97;;;3.60;;
74369;SDS011;62805;44.644;10.942;2023-04-03T03:08:25;5.95;;;3.60;;
74369;SDS011;62805;44.644;10.942;2023-04-03T03:10:50;6.47;;;3.70;;
74369;SDS011;62805;44.644;10.942;2023-04-03T03:13:16;7.75;;;3.38;;
74369;SDS011;62805;44.644;10.942;2023-04-03T03:15:41;6.00;;;3.60;;
74369;SDS011;62805;44.644;10.942;2023-04-03T03:18:06;6.87;;;3.70;;
74369;SDS011;62805;44.644;10.942;2023-04-03T03:20:32;7.40;;;3.43;;
74369;SDS011;62805;44.644;10.942;2023-04-03T03:22:57;7.80;;;3.50;;
74369;SDS011;62805;44.644;10.942;2023-04-03T03:25:22;7.70;;;3.97;;
74369;SDS011;62805;44.644;10.942;2023-04-03T03:27:48;6.30;;;3.53;;
74369;SDS011;62805;44.644;10.942;2023-04-03T03:30:13;6.15;;;3.70;;
74369;SDS011;62805;44.644;10.942;2023-04-03T03:32:38;6.65;;;3.97;;
74369;SDS011;62805;44.644;10.942;2023-04-03T03:35:04;10.65;;;4.63;;
74369;SDS011;62805;44.644;10.942;2023-04-03T03:37:30;6.43;;;4.07;;
74369;SDS011;62805;44.644;10.942;2023-04-03T03:39:55;7.07;;;4.25;;
74369;SDS011;62805;44.644;10.942;2023-04-03T03:42:20;8.63;;;4.25;;
74369;SDS011;62805;44.644;10.942;2023-04-03T03:44:47;9.82;;;4.15;;
74369;SDS011;62805;44.644;10.942;2023-04-03T03:47:12;7.30;;;4.30;;
74369;SDS011;62805;44.644;10.942;2023-04-03T03:49:37;7.75;;;4.38;;
74369;SDS011;62805;44.644;10.942;2023-04-03T03:52:03;8.30;;;4.50;;
74369;SDS011;62805;44.644;10.942;2023-04-03T03:54:28;11.50;;;4.13;;
74369;SDS011;62805;44.644;10.942;2023-04-03T03:56:53;8.52;;;4.68;;
74369;SDS011;62805;44.644;10.942;2023-04-03T03:59:19;6.65;;;4.13;;
74369;SDS011;62805;44.644;10.942;2023-04-03T04:01:45;7.68;;;4.82;;
74369;SDS011;62805;44.644;10.942;2023-04-03T04:04:10;8.77;;;4.87;;
74369;SDS011;62805;44.644;10.942;2023-04-03T04:06:35;7.65;;;4.13;;
74369;SDS011;62805;44.644;10.942;2023-04-03T04:09:01;9.38;;;4.30;;
74369;SDS011;62805;44.644;10.942;2023-04-03T04:11:26;6.57;;;3.72;;
74369;SDS011;62805;44.644;10.942;2023-04-03T04:13:52;7.28;;;3.90;;
74369;SDS011;62805;44.644;10.942;2023-04-03T04:16:18;10.18;;;4.57;;
74369;SDS011;62805;44.644;10.942;2023-04-03T04:18:43;7.53;;;4.33;;
74369;SDS011;62805;44.644;10.942;2023-04-03T04:21:08;8.13;;;4.80;;
74369;SDS011;62805;44.644;10.942;2023-04-03T04:23:34;6.95;;;4.10;;
74369;SDS011;62805;44.644;10.942;2023-04-03T04:25:59;8.23;;;4.90;;
74369;SDS011;62805;44.644;10.942;2023-04-03T04:28:25;9.15;;;4.97;;
74369;SDS011;62805;44.644;10.942;2023-04-03T04:30:50;8.90;;;5.27;;
74369;SDS011;62805;44.644;10.942;2023-04-03T04:33:15;11.03;;;5.00;;
74369;SDS011;62805;44.644;10.942;2023-04-03T04:35:41;9.85;;;5.90;;
74369;SDS011;62805;44.644;10.942;2023-04-03T04:38:08;9.70;;;5.60;;
74369;SDS011;62805;44.644;10.942;2023-04-03T04:40:34;10.85;;;5.88;;
74369;SDS011;62805;44.644;10.942;2023-04-03T04:42:59;9.85;;;5.80;;
74369;SDS011;62805;44.644;10.942;2023-04-03T04:45:25;10.80;;;5.63;;
74369;SDS011;62805;44.644;10.942;2023-04-03T04:47:50;11.17;;;5.47;;
74369;SDS011;62805;44.644;10.942;2023-04-03T04:50:17;10.55;;;6.47;;
74369;SDS011;62805;44.644;10.942;2023-04-03T04:52:42;12.60;;;6.38;;
74369;SDS011;62805;44.644;10.942;2023-04-03T04:55:08;12.60;;;6.65;;
74369;SDS011;62805;44.644;10.942;2023-04-03T04:57:33;18.70;;;6.93;;
74369;SDS011;62805;44.644;10.942;2023-04-03T04:59:59;10.45;;;5.70;;
74369;SDS011;62805;44.644;10.942;2023-04-03T05:02:25;11.43;;;6.55;;
74369;SDS011;62805;44.644;10.942;2023-04-03T05:04:50;12.20;;;6.78;;
74369;SDS011;62805;44.644;10.942;2023-04-03T05:07:16;11.27;;;6.63;;
74369;SDS011;62805;44.644;10.942;2023-04-03T05:09:42;13.98;;;7.30;;
74369;SDS011;62805;44.644;10.942;2023-04-03T05:12:07;11.00;;;6.63;;
74369;SDS011;62805;44.644;10.942;2023-04-03T05:14:33;13.30;;;6.63;;
74369;SDS011;62805;44.644;10.942;2023-04-03T05:16:58;13.68;;;6.43;;
74369;SDS011;62805;44.644;10.942;2023-04-03T05:19:24;13.77;;;7.30;;
74369;SDS011;62805;44.644;10.942;2023-04-03T05:21:49;10.80;;;7.05;;
74369;SDS011;62805;44.644;10.942;2023-04-03T05:24:15;12.15;;;7.38;;
74369;SDS011;62805;44.644;10.942;2023-04-03T05:26:41;12.43;;;7.45;;
74369;SDS011;62805;44.644;10.942;2023-04-03T05:29:07;14.68;;;6.93;;
74369;SDS011;62805;44.644;10.942;2023-04-03T05:31:33;14.95;;;7.65;;
74369;SDS011;62805;44.644;10.942;2023-04-03T05:33:58;13.88;;;7.50;;
74369;SDS011;62805;44.644;10.942;2023-04-03T05:36:24;16.65;;;7.43;;
74369;SDS011;62805;44.644;10.942;2023-04-03T05:38:50;14.75;;;8.23;;
74369;SDS011;62805;44.644;10.942;2023-04-03T05:41:16;15.73;;;7.68;;
74369;SDS011;62805;44.644;10.942;2023-04-03T05:43:41;14.70;;;7.50;;
74369;SDS011;62805;44.644;10.942;2023-04-03T05:46:09;16.48;;;7.65;;
74369;SDS011;62805;44.644;10.942;2023-04-03T05:48:36;14.27;;;7.63;;
74369;SDS011;62805;44.644;10.942;2023-04-03T05:51:02;14.32;;;7.65;;
74369;SDS011;62805;44.644;10.942;2023-04-03T05:53:28;11.68;;;6.68;;
74369;SDS011;62805;44.644;10.942;2023-04-03T05:55:56;10.20;;;6.07;;
74369;SDS011;62805;44.644;10.942;2023-04-03T05:58:21;17.58;;;6.95;;
74369;SDS011;62805;44.644;10.942;2023-04-03T06:00:47;13.20;;;6.50;;
74369;SDS011;62805;44.644;10.942;2023-04-03T06:03:12;15.35;;;7.03;;
74369;SDS011;62805;44.644;10.942;2023-04-03T06:05:37;11.05;;;6.38;;
74369;SDS011;62805;44.644;10.942;2023-04-03T06:08:03;11.50;;;6.30;;
74369;SDS011;62805;44.644;10.942;2023-04-03T06:10:28;14.73;;;6.18;;
74369;SDS011;62805;44.644;10.942;2023-04-03T06:12:54;11.98;;;6.95;;
74369;SDS011;62805;44.644;10.942;2023-04-03T06:15:19;11.77;;;7.57;;
74369;SDS011;62805;44.644;10.942;2023-04-03T06:17:45;11.70;;;7.00;;
74369;SDS011;62805;44.644;10.942;2023-04-03T06:20:10;11.80;;;7.53;;
74369;SDS011;62805;44.644;10.942;2023-04-03T06:22:37;12.25;;;6.95;;
74369;SDS011;62805;44.644;10.942;2023-04-03T06:25:02;12.55;;;7.18;;
74369;SDS011;62805;44.644;10.942;2023-04-03T06:27:28;13.98;;;8.55;;
74369;SDS011;62805;44.644;10.942;2023-04-03T06:29:53;14.07;;;8.02;;
74369;SDS011;62805;44.644;10.942;2023-04-03T06:32:19;13.77;;;8.10;;
74369;SDS011;62805;44.644;10.942;2023-04-03T06:34:45;15.80;;;8.43;;
74369;SDS011;62805;44.644;10.942;2023-04-03T06:37:17;16.25;;;8.75;;
74369;SDS011;62805;44.644;10.942;2023-04-03T06:39:44;15.13;;;9.55;;
74369;SDS011;62805;44.644;10.942;2023-04-03T06:42:10;15.57;;;9.35;;
74369;SDS011;62805;44.644;10.942;2023-04-03T06:44:36;15.32;;;8.70;;
74369;SDS011;62805;44.644;10.942;2023-04-03T06:47:02;17.25;;;10.27;;
74369;SDS011;62805;44.644;10.942;2023-04-03T06:49:27;16.00;;;9.23;;
74369;SDS011;62805;44.644;10.942;2023-04-03T06:51:54;14.52;;;10.07;;
74369;SDS011;62805;44.644;10.942;2023-04-03T06:54:19;16.83;;;9.15;;
74369;SDS011;62805;44.644;10.942;2023-04-03T06:56:45;16.05;;;10.07;;
74369;SDS011;62805;44.644;10.942;2023-04-03T06:59:11;14.57;;;8.57;;
74369;SDS011;62805;44.644;10.942;2023-04-03T07:01:40;15.77;;;9.38;;
74369;SDS011;62805;44.644;10.942;2023-04-03T07:04:06;16.45;;;9.07;;
74369;SDS011;62805;44.644;10.942;2023-04-03T07:06:32;14.82;;;10.00;;
74369;SDS011;62805;44.644;10.942;2023-04-03T07:08:58;15.93;;;8.90;;
74369;SDS011;62805;44.644;10.942;2023-04-03T07:11:25;14.40;;;9.40;;
74369;SDS011;62805;44.644;10.942;2023-04-03T07:13:51;16.35;;;9.93;;
74369;SDS011;62805;44.644;10.942;2023-04-03T07:16:17;14.27;;;9.63;;
74369;SDS011;62805;44.644;10.942;2023-04-03T07:18:43;15.70;;;9.55;;
74369;SDS011;62805;44.644;10.942;2023-04-03T07:21:09;14.05;;;9.95;;
74369;SDS011;62805;44.644;10.942;2023-04-03T07:23:34;17.42;;;9.65;;
74369;SDS011;62805;44.644;10.942;2023-04-03T07:26:00;17.38;;;9.98;;
74369;SDS011;62805;44.644;10.942;2023-04-03T07:28:26;14.75;;;9.77;;
74369;SDS011;62805;44.644;10.942;2023-04-03T07:30:53;15.73;;;9.60;;
74369;SDS011;62805;44.644;10.942;2023-04-03T07:33:29;17.58;;;9.95;;
74369;SDS011;62805;44.644;10.942;2023-04-03T07:35:56;15.55;;;9.73;;
74369;SDS011;62805;44.644;10.942;2023-04-03T07:38:21;17.50;;;9.70;;
74369;SDS011;62805;44.644;10.942;2023-04-03T07:40:47;14.07;;;9.57;;
74369;SDS011;62805;44.644;10.942;2023-04-03T07:43:14;19.67;;;10.10;;
74369;SDS011;62805;44.644;10.942;2023-04-03T07:45:40;15.50;;;9.70;;
74369;SDS011;62805;44.644;10.942;2023-04-03T07:48:06;16.60;;;9.48;;
74369;SDS011;62805;44.644;10.942;2023-04-03T07:50:32;15.75;;;10.43;;
74369;SDS011;62805;44.644;10.942;2023-04-03T07:52:58;18.60;;;9.50;;
74369;SDS011;62805;44.644;10.942;2023-04-03T07:55:24;16.08;;;10.10;;
74369;SDS011;62805;44.644;10.942;2023-04-03T07:57:50;17.83;;;9.68;;
74369;SDS011;62805;44.644;10.942;2023-04-03T08:00:15;17.13;;;10.75;;
74369;SDS011;62805;44.644;10.942;2023-04-03T08:02:42;20.02;;;10.27;;
74369;SDS011;62805;44.644;10.942;2023-04-03T08:05:09;16.02;;;10.30;;
74369;SDS011;62805;44.644;10.942;2023-04-03T08:07:36;19.77;;;10.15;;
74369;SDS011;62805;44.644;10.942;2023-04-03T08:10:04;18.45;;;10.13;;
74369;SDS011;62805;44.644;10.942;2023-04-03T08:12:30;17.00;;;9.57;;
74369;SDS011;62805;44.644;10.942;2023-04-03T08:14:56;16.58;;;10.55;;
74369;SDS011;62805;44.644;10.942;2023-04-03T08:17:22;19.92;;;10.70;;
74369;SDS011;62805;44.644;10.942;2023-04-03T08:19:48;18.02;;;10.82;;
74369;SDS011;62805;44.644;10.942;2023-04-03T08:22:13;17.10;;;9.53;;
74369;SDS011;62805;44.644;10.942;2023-04-03T08:24:38;19.33;;;11.73;;
74369;SDS011;62805;44.644;10.942;2023-04-03T08:27:04;16.90;;;11.03;;
74369;SDS011;62805;44.644;10.942;2023-04-03T08:29:29;18.70;;;10.52;;
74369;SDS011;62805;44.644;10.942;2023-04-03T08:31:55;16.98;;;10.88;;
74369;SDS011;62805;44.644;10.942;2023-04-03T08:34:20;16.80;;;10.43;;
74369;SDS011;62805;44.644;10.942;2023-04-03T08:36:46;19.02;;;10.65;;
74369;SDS011;62805;44.644;10.942;2023-04-03T08:39:12;15.80;;;10.60;;
74369;SDS011;62805;44.644;10.942;2023-04-03T08:41:41;16.67;;;10.13;;
74369;SDS011;62805;44.644;10.942;2023-04-03T09:00:34;12.77;;;6.72;;
74369;SDS011;62805;44.644;10.942;2023-04-03T09:03:23;12.60;;;6.15;;
74369;SDS011;62805;44.644;10.942;2023-04-03T09:11:15;10.82;;;5.45;;
74369;SDS011;62805;44.644;10.942;2023-04-03T09:14:15;9.77;;;5.63;;
74369;SDS011;62805;44.644;10.942;2023-04-03T09:17:03;12.13;;;6.90;;
74369;SDS011;62805;44.644;10.942;2023-04-03T09:19:56;10.30;;;5.85;;
74369;SDS011;62805;44.644;10.942;2023-04-03T09:22:31;10.20;;;6.18;;
74369;SDS011;62805;44.644;10.942;2023-04-03T09:27:26;7.60;;;5.20;;
74369;SDS011;62805;44.644;10.942;2023-04-03T09:29:52;12.02;;;4.90;;
74369;SDS011;62805;44.644;10.942;2023-04-03T09:32:30;8.85;;;5.25;;
74369;SDS011;62805;44.644;10.942;2023-04-03T09:35:02;9.55;;;5.22;;
74369;SDS011;62805;44.644;10.942;2023-04-03T09:37:37;10.00;;;5.22;;
74369;SDS011;62805;44.644;10.942;2023-04-03T09:40:03;7.50;;;5.25;;
74369;SDS011;62805;44.644;10.942;2023-04-03T09:42:31;7.97;;;5.10;;
74369;SDS011;62805;44.644;10.942;2023-04-03T09:45:01;8.82;;;5.03;;
74369;SDS011;62805;44.644;10.942;2023-04-03T09:52:39;6.95;;;3.75;;
74369;SDS011;62805;44.644;10.942;2023-04-03T09:55:07;5.28;;;3.78;;
74369;SDS011;62805;44.644;10.942;2023-04-03T09:57:33;7.38;;;4.38;;
74369;SDS011;62805;44.644;10.942;2023-04-03T10:00:00;7.65;;;4.70;;
74369;SDS011;62805;44.644;10.942;2023-04-03T10:02:39;6.65;;;4.15;;
74369;SDS011;62805;44.644;10.942;2023-04-03T10:07:50;6.03;;;3.97;;
74369;SDS011;62805;44.644;10.942;2023-04-03T10:10:20;7.10;;;4.28;;
74369;SDS011;62805;44.644;10.942;2023-04-03T10:12:49;6.90;;;4.25;;
74369;SDS011;62805;44.644;10.942;2023-04-03T10:15:29;9.82;;;5.13;;
74369;SDS011;62805;44.644;10.942;2023-04-03T10:18:02;6.45;;;4.18;;
74369;SDS011;62805;44.644;10.942;2023-04-03T10:20:37;6.15;;;3.72;;
74369;SDS011;62805;44.644;10.942;2023-04-03T10:25:40;6.18;;;3.20;;
74369;SDS011;62805;44.644;10.942;2023-04-03T10:30:54;6.22;;;2.88;;
74369;SDS011;62805;44.644;10.942;2023-04-03T10:33:36;3.75;;;2.15;;
74369;SDS011;62805;44.644;10.942;2023-04-03T10:39:12;4.75;;;2.28;;
74369;SDS011;62805;44.644;10.942;2023-04-03T10:44:36;4.25;;;2.40;;
74369;SDS011;62805;44.644;10.942;2023-04-03T10:47:09;2.95;;;2.10;;
74369;SDS011;62805;44.644;10.942;2023-04-03T10:57:40;5.35;;;2.58;;
74369;SDS011;62805;44.644;10.942;2023-04-03T11:00:30;6.60;;;2.42;;
74369;SDS011;62805;44.644;10.942;2023-04-03T11:03:06;8.25;;;2.72;;
74369;SDS011;62805;44.644;10.942;2023-04-03T11:05:50;5.82;;;2.58;;
74369;SDS011;62805;44.644;10.942;2023-04-03T11:11:11;6.85;;;3.22;;
74369;SDS011;62805;44.644;10.942;2023-04-03T11:16:31;7.90;;;4.00;;
74369;SDS011;62805;44.644;10.942;2023-04-03T11:19:08;8.00;;;3.78;;
74369;SDS011;62805;44.644;10.942;2023-04-03T11:21:48;4.47;;;2.47;;
74369;SDS011;62805;44.644;10.942;2023-04-03T11:24:23;5.70;;;2.50;;
74369;SDS011;62805;44.644;10.942;2023-04-03T11:26:52;6.82;;;2.45;;
74369;SDS011;62805;44.644;10.942;2023-04-03T11:29:22;6.38;;;2.83;;
74369;SDS011;62805;44.644;10.942;2023-04-03T11:34:47;7.25;;;2.95;;
74369;SDS011;62805;44.644;10.942;2023-04-03T11:39:57;7.00;;;2.25;;
74369;SDS011;62805;44.644;10.942;2023-04-03T11:45:17;5.45;;;2.10;;
74369;SDS011;62805;44.644;10.942;2023-04-03T11:55:52;2.97;;;1.90;;
74369;SDS011;62805;44.644;10.942;2023-04-03T12:01:06;4.85;;;2.22;;
74369;SDS011;62805;44.644;10.942;2023-04-03T12:04:19;4.50;;;1.65;;
74369;SDS011;62805;44.644;10.942;2023-04-03T12:08:57;5.93;;;1.98;;
74369;SDS011;62805;44.644;10.942;2023-04-03T12:11:29;4.10;;;1.50;;
74369;SDS011;62805;44.644;10.942;2023-04-03T12:22:11;7.20;;;2.10;;
74369;SDS011;62805;44.644;10.942;2023-04-03T12:24:40;5.05;;;1.77;;
74369;SDS011;62805;44.644;10.942;2023-04-03T12:41:11;3.85;;;1.13;;
74369;SDS011;62805;44.644;10.942;2023-04-03T12:46:55;2.22;;;1.15;;
74369;SDS011;62805;44.644;10.942;2023-04-03T12:51:55;3.55;;;1.20;;
74369;SDS011;62805;44.644;10.942;2023-04-03T12:56:49;2.10;;;1.02;;
74369;SDS011;62805;44.644;10.942;2023-04-03T12:59:18;2.90;;;0.82;;
74369;SDS011;62805;44.644;10.942;2023-04-03T13:01:57;3.55;;;1.20;;
74369;SDS011;62805;44.644;10.942;2023-04-03T13:04:25;4.43;;;1.23;;
74369;SDS011;62805;44.644;10.942;2023-04-03T13:06:52;66.97;;;34.47;;
74369;SDS011;62805;44.644;10.942;2023-04-03T13:09:19;3.67;;;1.50;;
74369;SDS011;62805;44.644;10.942;2023-04-03T13:12:11;2.97;;;1.13;;
74369;SDS011;62805;44.644;10.942;2023-04-03T13:14:39;3.85;;;1.33;;
74369;SDS011;62805;44.644;10.942;2023-04-03T13:17:14;3.38;;;1.15;;
74369;SDS011;62805;44.644;10.942;2023-04-03T13:19:41;5.85;;;1.00;;
74369;SDS011;62805;44.644;10.942;2023-04-03T13:22:18;1.63;;;0.80;;
74369;SDS011;62805;44.644;10.942;2023-04-03T13:24:44;2.78;;;0.60;;
74369;SDS011;62805;44.644;10.942;2023-04-03T13:27:14;10.63;;;1.13;;
74369;SDS011;62805;44.644;10.942;2023-04-03T13:29:40;3.03;;;1.58;;
74369;SDS011;62805;44.644;10.942;2023-04-03T13:32:06;2.50;;;0.82;;
74369;SDS011;62805;44.644;10.942;2023-04-03T13:34:36;5.07;;;1.08;;
74369;SDS011;62805;44.644;10.942;2023-04-03T13:37:05;4.88;;;1.33;;
74369;SDS011;62805;44.644;10.942;2023-04-03T13:39:35;3.22;;;1.33;;
74369;SDS011;62805;44.644;10.942;2023-04-03T13:44:48;3.95;;;0.73;;
74369;SDS011;62805;44.644;10.942;2023-04-03T13:47:37;2.05;;;0.60;;
74369;SDS011;62805;44.644;10.942;2023-04-03T13:50:15;3.15;;;0.60;;
74369;SDS011;62805;44.644;10.942;2023-04-03T13:52:52;2.08;;;0.80;;
74369;SDS011;62805;44.644;10.942;2023-04-03T13:58:00;2.33;;;1.00;;
74369;SDS011;62805;44.644;10.942;2023-04-03T14:02:54;2.27;;;1.63;;
74369;SDS011;62805;44.644;10.942;2023-04-03T14:05:22;4.88;;;1.33;;
74369;SDS011;62805;44.644;10.942;2023-04-03T14:07:50;3.65;;;0.90;;
74369;SDS011;62805;44.644;10.942;2023-04-03T14:10:16;5.60;;;1.10;;
74369;SDS011;62805;44.644;10.942;2023-04-03T14:12:41;4.05;;;0.90;;
74369;SDS011;62805;44.644;10.942;2023-04-03T14:15:14;2.95;;;0.90;;
74369;SDS011;62805;44.644;10.942;2023-04-03T14:17:44;3.47;;;0.88;;
74369;SDS011;62805;44.644;10.942;2023-04-03T14:20:14;2.20;;;0.50;;
74369;SDS011;62805;44.644;10.942;2023-04-03T14:22:41;2.15;;;0.60;;
74369;SDS011;62805;44.644;10.942;2023-04-03T14:25:06;3.72;;;1.30;;
74369;SDS011;62805;44.644;10.942;2023-04-03T14:27:38;2.17;;;1.25;;
74369;SDS011;62805;44.644;10.942;2023-04-03T14:32:34;3.95;;;0.90;;
74369;SDS011;62805;44.644;10.942;2023-04-03T14:34:59;6.18;;;1.13;;
74369;SDS011;62805;44.644;10.942;2023-04-03T14:37:26;17.60;;;10.75;;
74369;SDS011;62805;44.644;10.942;2023-04-03T14:39:55;3.75;;;1.55;;
74369;SDS011;62805;44.644;10.942;2023-04-03T14:42:26;2.28;;;0.65;;
74369;SDS011;62805;44.644;10.942;2023-04-03T14:44:56;3.05;;;0.80;;
74369;SDS011;62805;44.644;10.942;2023-04-03T14:47:24;2.33;;;0.80;;
74369;SDS011;62805;44.644;10.942;2023-04-03T14:49:52;3.47;;;0.95;;
74369;SDS011;62805;44.644;10.942;2023-04-03T14:52:20;5.57;;;2.33;;
74369;SDS011;62805;44.644;10.942;2023-04-03T14:54:46;6.97;;;1.38;;
74369;SDS011;62805;44.644;10.942;2023-04-03T14:57:14;4.22;;;1.80;;
74369;SDS011;62805;44.644;10.942;2023-04-03T14:59:41;5.50;;;1.42;;
74369;SDS011;62805;44.644;10.942;2023-04-03T15:04:47;1.98;;;0.77;;
74369;SDS011;62805;44.644;10.942;2023-04-03T15:07:12;6.77;;;1.13;;
74369;SDS011;62805;44.644;10.942;2023-04-03T15:09:38;4.93;;;2.38;;
74369;SDS011;62805;44.644;10.942;2023-04-03T15:12:04;3.33;;;1.02;;
74369;SDS011;62805;44.644;10.942;2023-04-03T15:14:29;3.50;;;0.80;;
74369;SDS011;62805;44.644;10.942;2023-04-03T15:16:54;3.77;;;0.90;;
74369;SDS011;62805;44.644;10.942;2023-04-03T15:19:20;2.20;;;0.90;;
74369;SDS011;62805;44.644;10.942;2023-04-03T15:21:45;1.02;;;0.65;;
74369;SDS011;62805;44.644;10.942;2023-04-03T15:24:10;2.45;;;0.90;;
74369;SDS011;62805;44.644;10.942;2023-04-03T15:26:36;2.15;;;0.93;;
74369;SDS011;62805;44.644;10.942;2023-04-03T15:29:03;3.65;;;1.13;;
74369;SDS011;62805;44.644;10.942;2023-04-03T15:31:29;2.60;;;1.00;;
74369;SDS011;62805;44.644;10.942;2023-04-03T15:33:54;2.78;;;1.00;;
74369;SDS011;62805;44.644;10.942;2023-04-03T15:36:20;1.83;;;0.98;;
74369;SDS011;62805;44.644;10.942;2023-04-03T15:38:46;2.65;;;0.82;;
74369;SDS011;62805;44.644;10.942;2023-04-03T15:41:12;2.20;;;1.00;;
74369;SDS011;62805;44.644;10.942;2023-04-03T15:43:37;2.58;;;1.20;;
74369;SDS011;62805;44.644;10.942;2023-04-03T15:46:03;3.08;;;1.00;;
74369;SDS011;62805;44.644;10.942;2023-04-03T15:48:29;3.95;;;1.02;;
74369;SDS011;62805;44.644;10.942;2023-04-03T15:50:55;5.25;;;0.82;;
74369;SDS011;62805;44.644;10.942;2023-04-03T15:53:20;3.03;;;0.82;;
74369;SDS011;62805;44.644;10.942;2023-04-03T15:55:45;4.20;;;0.80;;
74369;SDS011;62805;44.644;10.942;2023-04-03T15:58:11;4.50;;;1.00;;
74369;SDS011;62805;44.644;10.942;2023-04-03T16:00:36;2.58;;;1.35;;
74369;SDS011;62805;44.644;10.942;2023-04-03T16:03:08;2.85;;;0.90;;
74369;SDS011;62805;44.644;10.942;2023-04-03T16:05:36;2.22;;;0.80;;
74369;SDS011;62805;44.644;10.942;2023-04-03T16:08:03;1.45;;;0.70;;
74369;SDS011;62805;44.644;10.942;2023-04-03T16:10:30;7.05;;;1.00;;
74369;SDS011;62805;44.644;10.942;2023-04-03T16:12:56;3.05;;;1.00;;
74369;SDS011;62805;44.644;10.942;2023-04-03T16:15:21;5.85;;;0.93;;
74369;SDS011;62805;44.644;10.942;2023-04-03T16:17:49;3.92;;;0.73;;
74369;SDS011;62805;44.644;10.942;2023-04-03T16:20:14;2.90;;;0.80;;
74369;SDS011;62805;44.644;10.942;2023-04-03T16:22:40;2.95;;;1.05;;
74369;SDS011;62805;44.644;10.942;2023-04-03T16:25:07;4.05;;;1.13;;
74369;SDS011;62805;44.644;10.942;2023-04-03T16:27:33;2.53;;;0.88;;
74369;SDS011;62805;44.644;10.942;2023-04-03T16:29:59;5.35;;;1.35;;
74369;SDS011;62805;44.644;10.942;2023-04-03T16:32:26;2.58;;;0.80;;
74369;SDS011;62805;44.644;10.942;2023-04-03T16:34:53;1.95;;;0.70;;
74369;SDS011;62805;44.644;10.942;2023-04-03T16:37:19;2.20;;;0.63;;
74369;SDS011;62805;44.644;10.942;2023-04-03T16:39:45;2.17;;;0.95;;